createdAt,value
2018-01-15T00:01:38.193Z,0.93
2018-01-15T00:04:06.087Z,0.92
2018-01-15T00:06:33.902Z,0.95
2018-01-15T00:09:01.450Z,0.95
2018-01-15T00:11:29.035Z,0.98
2018-01-15T00:13:56.689Z,0.95
2018-01-15T00:16:24.328Z,0.98
2018-01-15T00:18:51.964Z,0.98
2018-01-15T00:21:19.629Z,0.94
2018-01-15T00:23:47.532Z,0.92
2018-01-15T00:26:15.199Z,0.95
2018-01-15T00:28:42.793Z,0.95
2018-01-15T00:31:10.666Z,0.96
2018-01-15T00:33:38.292Z,0.94
2018-01-15T00:36:06.126Z,0.93
2018-01-15T00:38:33.709Z,0.93
2018-01-15T00:41:01.558Z,0.91
2018-01-15T00:43:29.187Z,0.88
2018-01-15T00:45:56.997Z,0.88
2018-01-15T00:48:24.649Z,0.88
2018-01-15T00:50:52.252Z,0.87
2018-01-15T00:53:19.822Z,0.88
2018-01-15T00:55:47.450Z,0.87
2018-01-15T00:58:15.057Z,0.87
2018-01-15T01:00:43.017Z,0.87
2018-01-15T01:03:10.930Z,0.88
2018-01-15T01:05:38.553Z,0.92
2018-01-15T01:08:06.235Z,0.89
2018-01-15T01:10:34.024Z,0.89
2018-01-15T01:13:01.746Z,0.91
2018-01-15T01:15:29.428Z,0.93
2018-01-15T01:17:57.001Z,0.95
2018-01-15T01:20:24.967Z,0.94
2018-01-15T01:22:53.140Z,0.94
2018-01-15T01:25:20.794Z,0.94
2018-01-15T01:27:48.432Z,0.95
2018-01-15T01:30:16.299Z,0.95
2018-01-15T01:32:43.936Z,0.96
2018-01-15T01:35:11.614Z,0.99
2018-01-15T01:37:39.259Z,1.00
2018-01-15T01:40:06.945Z,1.02
2018-01-15T01:42:34.819Z,1.02
2018-01-15T01:45:02.638Z,1.03
2018-01-15T01:47:30.252Z,1.09
2018-01-15T01:49:58.155Z,1.11
2018-01-15T01:52:25.830Z,1.14
2018-01-15T01:54:53.499Z,1.16
2018-01-15T01:57:21.291Z,1.21
2018-01-15T01:59:49.058Z,1.24
2018-01-15T02:02:16.899Z,1.27
2018-01-15T02:04:44.617Z,1.32
2018-01-15T02:07:12.286Z,1.34
2018-01-15T02:09:40.241Z,1.35
2018-01-15T02:12:07.876Z,1.38
2018-01-15T02:14:35.587Z,1.40
2018-01-15T02:17:03.320Z,1.41
2018-01-15T02:19:30.987Z,1.43
2018-01-15T02:21:58.723Z,1.43
2018-01-15T02:24:26.441Z,1.44
2018-01-15T02:26:54.716Z,1.46
2018-01-15T02:29:22.366Z,1.43
2018-01-15T02:31:50.071Z,1.42
2018-01-15T02:34:18.332Z,1.44
2018-01-15T02:36:46.144Z,1.44
2018-01-15T02:39:13.857Z,1.41
2018-01-15T02:41:41.612Z,1.41
2018-01-15T02:44:09.269Z,1.41
2018-01-15T02:46:36.872Z,1.43
2018-01-15T02:49:04.684Z,1.44
2018-01-15T02:51:32.307Z,1.45
2018-01-15T02:54:00.070Z,1.47
2018-01-15T02:56:28.312Z,1.49
2018-01-15T02:58:56.139Z,1.50
2018-01-15T03:01:23.772Z,1.51
2018-01-15T03:03:51.505Z,1.54
2018-01-15T03:06:19.294Z,1.57
2018-01-15T03:08:47.753Z,1.58
2018-01-15T03:11:15.327Z,1.59
2018-01-15T03:13:42.923Z,1.60
2018-01-15T03:16:10.546Z,1.62
2018-01-15T03:18:38.138Z,1.64
2018-01-15T03:21:05.715Z,1.68
2018-01-15T03:23:33.321Z,1.68
2018-01-15T03:26:00.960Z,1.70
2018-01-15T03:28:28.642Z,1.74
2018-01-15T03:30:56.310Z,1.78
2018-01-15T03:33:24.019Z,1.80
2018-01-15T03:35:51.691Z,1.81
2018-01-15T03:38:19.258Z,1.86
2018-01-15T03:40:46.871Z,1.86
2018-01-15T03:43:14.768Z,1.88
2018-01-15T03:45:42.687Z,1.90
2018-01-15T03:48:10.487Z,1.93
2018-01-15T03:50:38.420Z,1.95
2018-01-15T03:53:05.989Z,1.94
2018-01-15T03:55:33.572Z,1.99
2018-01-15T03:58:01.175Z,2.01
2018-01-15T04:00:28.812Z,2.00
2018-01-15T04:02:56.438Z,2.01
2018-01-15T04:05:24.048Z,2.01
2018-01-15T04:07:51.656Z,2.03
2018-01-15T04:10:19.301Z,2.05
2018-01-15T04:12:46.980Z,2.06
2018-01-15T04:15:14.585Z,2.09
2018-01-15T04:17:42.464Z,2.09
2018-01-15T04:20:10.034Z,2.09
2018-01-15T04:22:37.736Z,2.09
2018-01-15T04:25:05.310Z,2.11
2018-01-15T04:27:32.874Z,2.12
2018-01-15T04:30:00.814Z,2.13
2018-01-15T04:32:28.399Z,2.14
2018-01-15T04:34:56.029Z,2.17
2018-01-15T04:37:23.594Z,2.20
2018-01-15T04:39:51.286Z,2.20
2018-01-15T04:42:19.225Z,2.22
2018-01-15T04:44:47.071Z,2.24
2018-01-15T04:47:14.782Z,2.28
2018-01-15T04:49:42.357Z,2.32
2018-01-15T04:52:10.194Z,2.32
2018-01-15T04:54:37.748Z,2.35
2018-01-15T04:57:05.388Z,2.33
2018-01-15T04:59:33.276Z,2.34
2018-01-15T05:02:00.909Z,2.38
2018-01-15T05:04:28.510Z,2.40
2018-01-15T05:06:56.108Z,2.41
2018-01-15T05:09:23.831Z,2.43
2018-01-15T05:11:51.415Z,2.45
2018-01-15T05:14:19.009Z,2.49
2018-01-15T05:16:46.635Z,2.51
2018-01-15T05:19:14.236Z,2.54
2018-01-15T05:21:41.802Z,2.57
2018-01-15T05:24:09.449Z,2.58
2018-01-15T05:26:37.020Z,2.57
2018-01-15T05:29:04.857Z,2.56
2018-01-15T05:31:32.781Z,2.58
2018-01-15T05:34:01.062Z,2.57
2018-01-15T05:36:28.648Z,2.59
2018-01-15T05:38:56.583Z,2.59
2018-01-15T05:41:24.220Z,2.56
2018-01-15T05:43:51.939Z,2.58
2018-01-15T05:46:19.539Z,2.61
2018-01-15T05:48:47.173Z,2.57
2018-01-15T05:51:14.991Z,2.54
2018-01-15T05:53:42.687Z,2.58
2018-01-15T05:56:10.263Z,2.55
2018-01-15T05:58:37.920Z,2.54
2018-01-15T06:01:05.527Z,2.55
2018-01-15T06:03:33.172Z,2.55
2018-01-15T06:06:00.729Z,2.58
2018-01-15T06:08:29.381Z,2.58
2018-01-15T06:10:56.950Z,2.58
2018-01-15T06:13:24.758Z,2.56
2018-01-15T06:15:52.426Z,2.57
2018-01-15T06:18:19.990Z,2.60
2018-01-15T06:20:47.549Z,2.58
2018-01-15T06:23:15.414Z,2.57
2018-01-15T06:25:43.107Z,2.62
2018-01-15T06:28:10.938Z,2.62
2018-01-15T06:30:38.552Z,2.58
2018-01-15T06:33:06.217Z,2.57
2018-01-15T06:35:33.840Z,2.57
2018-01-15T06:38:01.732Z,2.58
2018-01-15T06:40:29.344Z,2.57
2018-01-15T06:42:56.983Z,2.56
2018-01-15T06:45:24.568Z,2.52
2018-01-15T06:47:52.368Z,2.51
2018-01-15T06:50:20.052Z,2.52
2018-01-15T06:52:47.619Z,2.52
2018-01-15T06:55:15.222Z,2.51
2018-01-15T06:57:42.887Z,2.53
2018-01-15T07:00:10.491Z,2.53
2018-01-15T07:02:38.058Z,2.48
2018-01-15T07:05:05.876Z,2.51
2018-01-15T07:07:33.515Z,2.49
2018-01-15T07:10:01.127Z,2.50
2018-01-15T07:12:28.740Z,2.54
2018-01-15T07:14:56.432Z,2.48
2018-01-15T07:17:24.116Z,2.50
2018-01-15T07:19:51.684Z,2.51
2018-01-15T07:22:19.631Z,2.52
2018-01-15T07:24:47.193Z,2.50
2018-01-15T07:27:14.850Z,2.52
2018-01-15T07:29:42.491Z,2.51
2018-01-15T07:32:10.087Z,2.54
2018-01-15T07:34:37.796Z,2.55
2018-01-15T07:37:05.426Z,2.56
2018-01-15T07:39:33.375Z,2.58
2018-01-15T07:42:01.108Z,2.60
2018-01-15T07:44:28.718Z,2.58
2018-01-15T07:46:56.363Z,2.58
2018-01-15T07:49:23.939Z,2.63
2018-01-15T07:51:51.600Z,2.65
2018-01-15T07:54:19.356Z,2.63
2018-01-15T07:56:46.945Z,2.66
2018-01-15T07:59:14.504Z,2.68
2018-01-15T08:01:43.180Z,2.67
2018-01-15T08:04:10.824Z,2.71
2018-01-15T08:06:38.432Z,2.75
2018-01-15T08:09:06.023Z,2.77
2018-01-15T08:11:33.915Z,2.78
2018-01-15T08:14:01.877Z,2.81
2018-01-15T08:16:29.490Z,2.83
2018-01-15T08:18:57.088Z,2.82
2018-01-15T08:21:24.722Z,2.85
2018-01-15T08:23:52.392Z,2.84
2018-01-15T08:26:20.022Z,2.88
2018-01-15T08:28:47.953Z,2.93
2018-01-15T08:31:15.628Z,2.97
2018-01-15T08:33:43.608Z,2.97
2018-01-15T08:36:11.165Z,3.00
2018-01-15T08:38:38.806Z,3.03
2018-01-15T08:41:06.419Z,3.05
2018-01-15T08:43:33.985Z,3.09
2018-01-15T08:46:01.909Z,3.12
2018-01-15T08:48:29.509Z,3.13
2018-01-15T08:50:57.089Z,3.13
2018-01-15T08:53:24.705Z,3.18
2018-01-15T08:55:52.502Z,3.21
2018-01-15T08:58:20.107Z,3.25
2018-01-15T09:00:47.799Z,3.29
2018-01-15T09:03:15.427Z,3.32
2018-01-15T09:05:43.000Z,3.38
2018-01-15T09:08:10.694Z,3.39
2018-01-15T09:10:38.249Z,3.43
2018-01-15T09:13:05.876Z,3.48
2018-01-15T09:15:33.562Z,3.50
2018-01-15T09:18:01.195Z,3.50
2018-01-15T09:20:28.902Z,3.54
2018-01-15T09:22:56.522Z,3.57
2018-01-15T09:25:24.142Z,3.60
2018-01-15T09:27:51.793Z,3.60
2018-01-15T09:30:19.393Z,3.61
2018-01-15T09:32:47.064Z,3.66
2018-01-15T09:35:14.687Z,3.68
2018-01-15T09:37:43.125Z,3.72
2018-01-15T09:40:10.742Z,3.75
2018-01-15T09:42:38.338Z,3.82
2018-01-15T09:45:06.026Z,3.90
2018-01-15T09:47:33.624Z,3.96
2018-01-15T09:50:01.311Z,4.04
2018-01-15T09:52:28.875Z,4.06
2018-01-15T09:54:56.579Z,4.11
2018-01-15T09:57:24.219Z,4.15
2018-01-15T09:59:51.909Z,4.19
2018-01-15T10:02:19.510Z,4.25
2018-01-15T10:04:47.078Z,4.28
2018-01-15T10:07:14.678Z,4.29
2018-01-15T10:09:42.301Z,4.30
2018-01-15T10:12:09.956Z,4.34
2018-01-15T10:14:38.621Z,4.39
2018-01-15T10:17:06.552Z,4.44
2018-01-15T10:19:34.137Z,4.46
2018-01-15T10:22:01.967Z,4.51
2018-01-15T10:24:29.605Z,4.52
2018-01-15T10:26:57.881Z,4.52
2018-01-15T10:29:25.463Z,4.55
2018-01-15T10:31:53.562Z,4.57
2018-01-15T10:34:21.489Z,4.59
2018-01-15T10:36:49.116Z,4.62
2018-01-15T10:39:16.778Z,4.63
2018-01-15T10:41:44.380Z,4.65
2018-01-15T10:44:11.992Z,4.67
2018-01-15T10:46:39.628Z,4.68
2018-01-15T10:49:07.309Z,4.70
2018-01-15T10:51:34.901Z,4.74
2018-01-15T10:54:02.457Z,4.77
2018-01-15T10:56:30.358Z,4.81
2018-01-15T10:58:57.959Z,4.85
2018-01-15T11:01:27.530Z,4.90
2018-01-15T11:03:55.091Z,4.89
2018-01-15T11:06:22.670Z,4.89
2018-01-15T11:08:50.607Z,4.90
2018-01-15T11:11:18.222Z,4.93
2018-01-15T11:13:45.784Z,4.92
2018-01-15T11:16:13.375Z,4.93
2018-01-15T11:18:41.258Z,4.97
2018-01-15T11:21:08.917Z,4.99
2018-01-15T11:23:36.549Z,5.00
2018-01-15T11:26:04.138Z,5.04
2018-01-15T11:28:32.034Z,5.06
2018-01-15T11:30:59.628Z,5.07
2018-01-15T11:33:27.605Z,5.13
2018-01-15T11:35:55.254Z,5.17
2018-01-15T11:38:23.158Z,5.17
2018-01-15T11:40:50.807Z,5.23
2018-01-15T11:43:18.508Z,5.26
2018-01-15T11:45:46.094Z,5.27
2018-01-15T11:48:13.756Z,5.29
2018-01-15T11:50:41.414Z,5.32
2018-01-15T11:53:09.027Z,5.35
2018-01-15T11:55:36.619Z,5.37
2018-01-15T11:58:04.197Z,5.41
2018-01-15T12:00:31.804Z,5.48
2018-01-15T12:02:59.399Z,5.52
2018-01-15T12:05:26.997Z,5.55
2018-01-15T12:07:54.657Z,5.60
2018-01-15T12:10:22.249Z,5.64
2018-01-15T12:12:50.115Z,5.67
2018-01-15T12:15:17.844Z,5.71
2018-01-15T12:17:45.427Z,5.75
2018-01-15T12:20:13.176Z,5.80
2018-01-15T12:22:40.742Z,5.86
2018-01-15T12:25:08.364Z,5.92
2018-01-15T12:27:35.995Z,5.98
2018-01-15T12:30:03.702Z,6.01
2018-01-15T12:32:31.400Z,6.03
2018-01-15T12:34:59.726Z,6.06
2018-01-15T12:37:28.197Z,6.11
2018-01-15T12:39:55.760Z,6.17
2018-01-15T12:42:23.340Z,6.20
2018-01-15T12:44:51.004Z,6.23
2018-01-15T12:47:18.668Z,6.26
2018-01-15T12:49:46.300Z,6.31
2018-01-15T12:52:13.902Z,6.31
2018-01-15T12:54:41.606Z,6.39
2018-01-15T12:57:09.601Z,6.41
2018-01-15T12:59:37.235Z,6.44
2018-01-15T13:02:04.826Z,6.47
2018-01-15T13:04:32.431Z,6.54
2018-01-15T13:07:00.059Z,6.59
2018-01-15T13:09:27.692Z,6.61
2018-01-15T13:11:59.342Z,6.62
2018-01-15T13:14:28.782Z,6.60
2018-01-15T13:16:56.649Z,6.63
2018-01-15T13:19:33.132Z,6.65
2018-01-15T13:22:00.806Z,6.70
2018-01-15T13:24:28.398Z,6.69
2018-01-15T13:27:06.984Z,6.70
2018-01-15T13:29:34.631Z,6.69
2018-01-15T13:32:02.324Z,6.66
2018-01-15T13:34:29.902Z,6.64
2018-01-15T13:36:57.796Z,6.64
2018-01-15T13:39:25.685Z,6.63
2018-01-15T13:41:53.329Z,6.62
2018-01-15T13:44:20.914Z,6.62
2018-01-15T13:46:48.534Z,6.60
2018-01-15T13:49:16.424Z,6.58
2018-01-15T13:51:44.001Z,6.54
2018-01-15T13:54:11.658Z,6.52
2018-01-15T13:56:39.249Z,6.54
2018-01-15T13:59:06.888Z,6.53
2018-01-15T14:01:34.473Z,6.54
2018-01-15T14:04:17.341Z,6.52
2018-01-15T14:06:44.964Z,6.53
2018-01-15T14:09:12.755Z,6.51
2018-01-15T14:11:40.366Z,6.54
2018-01-15T14:14:08.033Z,6.54
2018-01-15T14:16:36.667Z,6.54
2018-01-15T14:19:04.700Z,6.54
2018-01-15T14:21:32.288Z,6.53
2018-01-15T14:23:59.943Z,6.52
2018-01-15T14:26:27.556Z,6.51
2018-01-15T14:28:55.496Z,6.53
2018-01-15T14:31:23.166Z,6.59
2018-01-15T14:33:51.199Z,6.58
2018-01-15T14:36:18.983Z,6.57
2018-01-15T14:38:46.782Z,6.57
2018-01-15T14:41:15.634Z,6.56
2018-01-15T14:43:43.221Z,6.54
2018-01-15T14:46:12.148Z,6.53
2018-01-15T14:48:39.869Z,6.55
2018-01-15T14:51:07.846Z,6.51
2018-01-15T14:53:35.701Z,6.49
2018-01-15T14:56:03.270Z,6.49
2018-01-15T14:58:30.869Z,6.47
2018-01-15T15:00:58.417Z,6.43
2018-01-15T15:03:26.031Z,6.41
2018-01-15T15:05:53.581Z,6.39
2018-01-15T15:08:21.265Z,6.40
2018-01-15T15:10:57.899Z,6.37
2018-01-15T15:13:25.573Z,6.38
2018-01-15T15:15:53.579Z,6.36
2018-01-15T15:18:21.202Z,6.33
2018-01-15T15:20:48.887Z,6.28
2018-01-15T15:23:16.768Z,6.28
2018-01-15T15:25:44.552Z,6.25
2018-01-15T15:28:12.299Z,6.24
2018-01-15T15:30:39.942Z,6.22
2018-01-15T15:33:08.480Z,6.24
2018-01-15T15:35:36.145Z,6.19
2018-01-15T15:38:03.876Z,6.17
2018-01-15T15:40:31.941Z,6.19
2018-01-15T15:42:59.671Z,6.17
2018-01-15T15:45:28.880Z,6.17
2018-01-15T15:47:56.939Z,6.14
2018-01-15T15:50:25.900Z,6.14
2018-01-15T15:52:53.669Z,6.11
2018-01-15T15:55:21.315Z,6.11
2018-01-15T15:57:49.033Z,6.10
2018-01-15T16:00:17.171Z,6.14
2018-01-15T16:05:19.317Z,6.10
2018-01-15T16:07:47.119Z,6.14
2018-01-15T16:10:14.886Z,6.14
2018-01-15T16:12:42.944Z,6.12
2018-01-15T16:15:11.103Z,6.11
2018-01-15T16:17:38.762Z,6.10
2018-01-15T16:20:06.752Z,6.14
2018-01-15T16:22:34.395Z,6.12
2018-01-15T16:25:02.056Z,6.15
2018-01-15T16:27:29.892Z,6.12
2018-01-15T16:29:58.041Z,6.09
2018-01-15T16:32:25.725Z,6.09
2018-01-15T16:34:54.634Z,6.09
2018-01-15T16:37:22.332Z,6.11
2018-01-15T16:39:49.996Z,6.09
2018-01-15T16:42:17.666Z,6.10
2018-01-15T16:44:45.387Z,6.10
2018-01-15T16:47:13.257Z,6.09
2018-01-15T16:49:41.225Z,6.07
2018-01-15T16:52:08.824Z,6.07
2018-01-15T16:54:36.536Z,6.05
2018-01-15T16:57:04.701Z,6.07
2018-01-15T16:59:32.625Z,6.08
2018-01-15T17:02:00.290Z,6.05
2018-01-15T17:04:28.301Z,6.10
2018-01-15T17:06:55.923Z,6.11
2018-01-15T17:09:23.587Z,6.11
2018-01-15T17:11:51.271Z,6.11
2018-01-15T17:14:18.923Z,6.12
2018-01-15T17:16:47.264Z,6.13
2018-01-15T17:19:15.140Z,6.14
2018-01-15T17:21:44.066Z,6.13
2018-01-15T17:24:11.997Z,6.16
2018-01-15T17:26:39.694Z,6.15
2018-01-15T17:29:07.629Z,6.15
2018-01-15T17:31:35.377Z,6.15
2018-01-15T17:34:03.021Z,6.11
2018-01-15T17:36:30.624Z,6.13
2018-01-15T17:38:58.258Z,6.14
2018-01-15T17:41:25.901Z,6.15
2018-01-15T17:43:53.660Z,6.15
2018-01-15T17:46:22.250Z,6.13
2018-01-15T17:48:54.421Z,6.14
2018-01-15T17:51:22.542Z,6.16
2018-01-15T17:53:50.274Z,6.18
2018-01-15T17:56:19.168Z,6.13
2018-01-15T17:58:48.187Z,6.15
2018-01-15T18:01:20.659Z,6.15
2018-01-15T18:03:48.719Z,6.13
2018-01-15T18:06:17.365Z,6.17
2018-01-15T18:09:02.310Z,6.13
2018-01-15T18:11:30.036Z,6.10
2018-01-15T18:13:58.130Z,6.13
2018-01-15T18:16:26.137Z,6.14
2018-01-15T18:18:53.912Z,6.08
2018-01-15T18:21:21.762Z,6.06
2018-01-15T18:23:49.581Z,6.01
2018-01-15T18:26:17.390Z,6.04
2018-01-15T18:28:46.697Z,5.99
2018-01-15T18:31:15.340Z,5.96
2018-01-15T18:33:43.107Z,5.96
2018-01-15T18:36:11.078Z,5.96
2018-01-15T18:38:39.183Z,5.94
2018-01-15T18:41:06.984Z,5.91
2018-01-15T18:43:34.771Z,5.88
2018-01-15T18:46:02.666Z,5.88
2018-01-15T18:48:30.441Z,5.89
2018-01-15T18:50:58.205Z,5.90
2018-01-15T18:53:26.245Z,5.87
2018-01-15T18:55:54.030Z,5.85
2018-01-15T18:58:21.949Z,5.87
2018-01-15T19:01:01.731Z,5.87
2018-01-15T19:03:29.571Z,5.84
2018-01-15T19:05:57.324Z,5.84
2018-01-15T19:08:26.582Z,5.81
2018-01-15T19:10:55.532Z,5.77
2018-01-15T19:13:23.418Z,5.74
2018-01-15T19:15:51.331Z,5.71
2018-01-15T19:18:19.143Z,5.73
2018-01-15T19:20:46.817Z,5.71
2018-01-15T19:23:14.536Z,5.66
2018-01-15T19:25:42.300Z,5.66
2018-01-15T19:28:10.018Z,5.61
2018-01-15T19:30:50.416Z,5.66
2018-01-15T19:33:18.213Z,5.62
2018-01-15T19:35:55.051Z,5.65
2018-01-15T19:38:28.951Z,5.67
2018-01-15T19:41:05.992Z,5.65
2018-01-15T19:44:03.394Z,5.64
2018-01-15T19:46:36.814Z,5.65
2018-01-15T19:49:14.654Z,5.61
2018-01-15T19:51:48.856Z,5.64
2018-01-15T19:58:00.370Z,5.68
2018-01-15T20:00:37.675Z,5.66
2018-01-15T20:03:12.437Z,5.69
2018-01-15T21:48:27.925Z,6.66
2018-01-15T21:54:00.606Z,6.72
